createdAt,value
2018-09-14T00:02:00.598Z,98056.02
2018-09-14T00:04:29.054Z,98059.17
2018-09-14T00:06:57.756Z,98059.96
2018-09-14T00:09:25.946Z,98057.59
2018-09-14T00:11:54.136Z,98058.19
2018-09-14T00:14:22.322Z,98057.20
2018-09-14T00:16:50.756Z,98060.16
2018-09-14T00:19:19.026Z,98061.34
2018-09-14T00:21:47.226Z,98057.59
2018-09-14T00:24:15.412Z,98061.70
2018-09-14T00:26:43.894Z,98059.93
2018-09-14T00:29:12.122Z,98063.27
2018-09-14T00:31:40.406Z,98062.84
2018-09-14T00:34:08.742Z,98068.55
2018-09-14T00:36:36.987Z,98060.42
2018-09-14T00:39:07.661Z,98053.72
2018-09-14T00:41:35.869Z,98056.66
2018-09-14T00:44:04.057Z,98056.27
2018-09-14T00:46:32.365Z,98051.14
2018-09-14T00:49:00.729Z,98061.38
2018-09-14T00:51:29.329Z,98061.37
2018-09-14T00:53:57.706Z,98059.59
2018-09-14T00:56:25.969Z,98056.64
2018-09-14T00:58:54.214Z,98062.55
2018-09-14T01:01:22.473Z,98054.88
2018-09-14T01:03:50.657Z,98062.14
2018-09-14T01:06:18.832Z,98065.27
2018-09-14T01:08:47.027Z,98058.36
2018-09-14T01:11:15.417Z,98067.81
2018-09-14T01:13:43.654Z,98067.42
2018-09-14T01:16:11.828Z,98063.28
2018-09-14T01:18:40.047Z,98072.32
2018-09-14T01:21:08.571Z,98069.77
2018-09-14T01:23:36.756Z,98068.96
2018-09-14T01:26:05.246Z,98073.08
2018-09-14T01:28:33.469Z,98068.91
2018-09-14T01:31:01.889Z,98071.66
2018-09-14T01:33:30.415Z,98073.05
2018-09-14T01:36:04.151Z,98075.02
2018-09-14T01:38:32.481Z,98081.31
2018-09-14T01:41:00.661Z,98070.88
2018-09-14T01:43:28.969Z,98077.36
2018-09-14T01:45:57.195Z,98072.05
2018-09-14T01:48:25.417Z,98073.43
2018-09-14T01:50:53.787Z,98079.53
2018-09-14T01:53:21.964Z,98077.58
2018-09-14T01:55:50.458Z,98077.16
2018-09-14T01:58:18.818Z,98076.78
2018-09-14T02:00:47.085Z,98083.06
2018-09-14T02:03:15.670Z,98080.84
2018-09-14T02:05:44.640Z,98081.84
2018-09-14T02:08:12.826Z,98080.63
2018-09-14T02:10:41.072Z,98078.48
2018-09-14T02:13:09.244Z,98080.02
2018-09-14T02:15:37.420Z,98081.98
2018-09-14T02:18:05.616Z,98080.37
2018-09-14T02:20:33.870Z,98079.94
2018-09-14T02:23:02.056Z,98081.09
2018-09-14T02:25:30.855Z,98082.09
2018-09-14T02:27:59.008Z,98085.00
2018-09-14T02:30:27.176Z,98083.24
2018-09-14T02:32:55.430Z,98095.92
2018-09-14T02:35:25.132Z,98084.16
2018-09-14T02:37:53.357Z,98089.65
2018-09-14T02:40:21.550Z,98084.95
2018-09-14T02:42:49.731Z,98087.64
2018-09-14T02:45:18.946Z,98088.39
2018-09-14T02:47:47.126Z,98087.46
2018-09-14T02:50:15.329Z,98089.78
2018-09-14T02:52:43.633Z,98093.53
2018-09-14T02:55:12.101Z,98094.09
2018-09-14T02:57:40.283Z,98094.05
2018-09-14T03:00:08.655Z,98091.67
2018-09-14T03:02:36.745Z,98089.61
2018-09-14T03:05:05.320Z,98091.52
2018-09-14T03:07:33.825Z,98086.98
2018-09-14T03:10:02.075Z,98092.25
2018-09-14T03:12:30.342Z,98089.68
2018-09-14T03:14:58.785Z,98092.38
2018-09-14T03:17:27.009Z,98092.55
2018-09-14T03:19:55.270Z,98091.05
2018-09-14T03:22:23.682Z,98091.46
2018-09-14T03:24:51.854Z,98095.17
2018-09-14T03:27:20.034Z,98095.52
2018-09-14T03:29:48.222Z,98097.66
2018-09-14T03:32:16.674Z,98098.23
2018-09-14T03:34:44.813Z,98093.30
2018-09-14T03:37:13.026Z,98095.73
2018-09-14T03:39:41.262Z,98093.98
2018-09-14T03:42:09.474Z,98095.88
2018-09-14T03:44:37.987Z,98094.95
2018-09-14T03:47:06.273Z,98100.66
2018-09-14T03:49:34.478Z,98101.72
2018-09-14T03:52:02.731Z,98102.47
2018-09-14T03:54:31.116Z,98108.89
2018-09-14T03:57:01.953Z,98111.61
2018-09-14T03:59:30.146Z,98116.31
2018-09-14T04:01:59.369Z,98111.53
2018-09-14T04:04:27.561Z,98116.20
2018-09-14T04:06:55.728Z,98113.45
2018-09-14T04:09:23.905Z,98119.95
2018-09-14T04:11:52.087Z,98115.08
2018-09-14T04:14:20.257Z,98124.12
2018-09-14T04:16:48.482Z,98117.91
2018-09-14T04:19:16.683Z,98121.16
2018-09-14T04:21:45.145Z,98119.95
2018-09-14T04:24:13.432Z,98123.44
2018-09-14T04:26:41.621Z,98121.11
2018-09-14T04:29:09.877Z,98127.77
2018-09-14T04:31:38.033Z,98129.47
2018-09-14T04:34:06.217Z,98134.44
2018-09-14T04:36:34.388Z,98138.44
2018-09-14T04:39:02.559Z,98125.30
2018-09-14T04:41:30.724Z,98131.48
2018-09-14T04:43:58.896Z,98131.42
2018-09-14T04:46:27.085Z,98133.71
2018-09-14T04:48:55.264Z,98137.30
2018-09-14T04:51:23.447Z,98140.41
2018-09-14T04:53:51.660Z,98149.06
2018-09-14T04:56:19.834Z,98150.02
2018-09-14T04:58:48.016Z,98145.84
2018-09-14T05:01:16.177Z,98149.52
2018-09-14T05:03:44.426Z,98141.09
2018-09-14T05:06:12.683Z,98147.42
2018-09-14T05:08:40.865Z,98151.33
2018-09-14T05:11:09.053Z,98153.39
2018-09-14T05:13:37.297Z,98150.95
2018-09-14T05:16:05.590Z,98153.81
2018-09-14T05:18:33.887Z,98158.88
2018-09-14T05:21:02.160Z,98162.36
2018-09-14T05:23:30.421Z,98163.99
2018-09-14T05:25:58.715Z,98163.99
2018-09-14T05:28:26.883Z,98164.31
2018-09-14T05:30:55.138Z,98166.42
2018-09-14T05:33:23.668Z,98166.84
2018-09-14T05:35:51.861Z,98174.13
2018-09-14T05:38:20.114Z,98169.95
2018-09-14T05:40:48.295Z,98177.02
2018-09-14T05:43:16.485Z,98185.52
2018-09-14T05:45:44.729Z,98165.17
2018-09-14T05:48:12.947Z,98168.35
2018-09-14T05:50:41.166Z,98172.89
2018-09-14T05:53:09.340Z,98176.39
2018-09-14T05:55:37.604Z,98178.37
2018-09-14T05:58:06.047Z,98182.75
2018-09-14T06:00:34.253Z,98185.80
2018-09-14T06:03:02.432Z,98186.99
2018-09-14T06:05:30.601Z,98189.02
2018-09-14T06:07:58.874Z,98196.23
2018-09-14T06:10:27.094Z,98190.30
2018-09-14T06:12:55.272Z,98197.98
2018-09-14T06:15:23.448Z,98204.18
2018-09-14T06:17:51.680Z,98195.83
2018-09-14T06:20:19.952Z,98197.99
2018-09-14T06:22:48.142Z,98204.08
2018-09-14T06:25:16.313Z,98205.06
2018-09-14T06:27:44.840Z,98205.68
2018-09-14T06:30:13.078Z,98205.09
2018-09-14T06:32:41.265Z,98206.79
2018-09-14T06:35:10.378Z,98214.70
2018-09-14T06:37:38.870Z,98218.55
2018-09-14T06:40:07.094Z,98215.59
2018-09-14T06:42:35.358Z,98220.69
2018-09-14T06:45:03.560Z,98223.42
2018-09-14T06:47:31.820Z,98216.11
2018-09-14T06:50:00.285Z,98218.55
2018-09-14T06:52:28.478Z,98223.30
2018-09-14T06:54:56.877Z,98224.48
2018-09-14T06:57:25.129Z,98231.59
2018-09-14T06:59:53.301Z,98237.24
2018-09-14T07:02:21.581Z,98233.45
2018-09-14T07:04:49.781Z,98232.78
2018-09-14T07:07:17.952Z,98241.14
2018-09-14T07:09:46.208Z,98243.98
2018-09-14T07:12:14.467Z,98242.17
2018-09-14T07:14:42.742Z,98255.56
2018-09-14T07:17:11.032Z,98257.77
2018-09-14T07:19:39.390Z,98255.60
2018-09-14T07:22:07.603Z,98256.20
2018-09-14T07:24:35.951Z,98263.37
2018-09-14T07:27:04.124Z,98266.92
2018-09-14T07:29:32.304Z,98260.97
2018-09-14T07:32:00.517Z,98271.37
2018-09-14T07:34:28.739Z,98262.94
2018-09-14T07:36:56.939Z,98261.39
2018-09-14T07:39:25.137Z,98273.31
2018-09-14T07:41:53.371Z,98276.34
2018-09-14T07:44:21.577Z,98282.81
2018-09-14T07:46:49.819Z,98289.37
2018-09-14T07:49:18.049Z,98292.06
2018-09-14T07:51:46.273Z,98292.06
2018-09-14T07:54:14.469Z,98291.89
2018-09-14T07:56:42.725Z,98300.73
2018-09-14T07:59:10.893Z,98301.11
2018-09-14T08:01:39.085Z,98299.42
2018-09-14T08:04:07.269Z,98302.28
2018-09-14T08:06:35.537Z,98302.25
2018-09-14T08:09:05.247Z,98303.33
2018-09-14T08:11:33.513Z,98298.43
2018-09-14T08:14:02.111Z,98305.22
2018-09-14T08:16:30.384Z,98308.55
2018-09-14T08:18:58.623Z,98317.12
2018-09-14T08:21:26.902Z,98318.25
2018-09-14T08:23:55.023Z,98318.81
2018-09-14T08:26:23.270Z,98318.10
2018-09-14T08:28:51.484Z,98321.66
2018-09-14T08:31:19.930Z,98319.20
2018-09-14T08:33:48.194Z,98317.42
2018-09-14T08:36:16.680Z,98323.00
2018-09-14T08:38:44.886Z,98325.77
2018-09-14T08:41:13.061Z,98325.09
2018-09-14T08:43:41.232Z,98331.51
2018-09-14T08:46:10.217Z,98332.41
2018-09-14T08:48:38.470Z,98335.61
2018-09-14T08:51:07.784Z,98332.09
2018-09-14T08:53:36.050Z,98329.92
2018-09-14T08:56:04.251Z,98333.88
2018-09-14T08:58:32.511Z,98341.91
2018-09-14T09:01:00.871Z,98339.09
2018-09-14T09:03:29.057Z,98338.36
2018-09-14T09:05:57.331Z,98344.72
2018-09-14T09:08:25.625Z,98338.83
2018-09-14T09:10:53.811Z,98339.83
2018-09-14T09:13:22.309Z,98339.84
2018-09-14T09:15:50.456Z,98344.66
2018-09-14T09:18:18.701Z,98339.87
2018-09-14T09:20:47.192Z,98341.88
2018-09-14T09:23:15.418Z,98343.67
2018-09-14T09:25:43.578Z,98347.16
2018-09-14T09:28:11.810Z,98344.22
2018-09-14T09:30:40.004Z,98342.84
2018-09-14T09:33:08.189Z,98340.16
2018-09-14T09:35:36.375Z,98338.21
2018-09-14T09:38:04.639Z,98332.72
2018-09-14T09:40:32.881Z,98332.42
2018-09-14T09:43:01.084Z,98333.20
2018-09-14T09:45:29.351Z,98337.45
2018-09-14T09:47:57.597Z,98340.97
2018-09-14T09:50:25.772Z,98334.27
2018-09-14T09:52:54.005Z,98337.05
2018-09-14T09:55:22.192Z,98335.59
2018-09-14T09:57:50.375Z,98338.93
2018-09-14T10:00:24.165Z,98332.45
2018-09-14T10:02:57.764Z,98345.19
2018-09-14T10:05:31.363Z,98340.93
2018-09-14T10:07:59.524Z,98349.84
2018-09-14T10:10:27.996Z,98346.46
2018-09-14T10:13:02.804Z,98338.58
2018-09-14T10:15:30.992Z,98349.69
2018-09-14T10:17:59.175Z,98346.98
2018-09-14T10:20:27.424Z,98347.98
2018-09-14T10:22:55.614Z,98349.13
2018-09-14T10:25:23.870Z,98351.14
2018-09-14T10:27:52.102Z,98352.09
2018-09-14T10:30:20.326Z,98347.19
2018-09-14T10:32:48.498Z,98340.47
2018-09-14T10:35:16.957Z,98344.49
2018-09-14T10:37:45.149Z,98349.53
2018-09-14T10:40:13.382Z,98341.33
2018-09-14T10:42:41.664Z,98338.81
2018-09-14T10:45:09.884Z,98336.66
2018-09-14T10:47:38.010Z,98334.20
2018-09-14T10:50:06.228Z,98334.48
2018-09-14T10:52:34.705Z,98332.70
2018-09-14T10:55:02.877Z,98330.67
2018-09-14T10:57:31.061Z,98325.81
2018-09-14T10:59:59.469Z,98325.99
2018-09-14T11:02:27.708Z,98327.80
2018-09-14T11:04:56.172Z,98325.73
2018-09-14T11:07:24.636Z,98326.96
2018-09-14T11:09:52.878Z,98326.34
2018-09-14T11:12:21.202Z,98331.98
2018-09-14T11:14:49.701Z,98326.75
2018-09-14T11:17:17.876Z,98321.66
2018-09-14T11:19:46.068Z,98322.88
2018-09-14T11:22:14.266Z,98327.56
2018-09-14T11:24:42.612Z,98325.64
2018-09-14T11:27:10.690Z,98326.08
2018-09-14T11:29:38.970Z,98323.89
2018-09-14T11:32:07.226Z,98325.16
2018-09-14T11:34:35.440Z,98322.00
2018-09-14T11:37:03.698Z,98317.30
2018-09-14T11:39:31.877Z,98322.92
2018-09-14T11:42:00.158Z,98321.91
2018-09-14T11:44:28.436Z,98324.23
2018-09-14T11:46:56.689Z,98314.30
2018-09-14T11:49:24.892Z,98311.85
2018-09-14T11:51:53.103Z,98317.08
2018-09-14T11:54:21.373Z,98314.86
2018-09-14T11:56:49.578Z,98314.05
2018-09-14T11:59:17.769Z,98306.51
2018-09-14T12:01:45.987Z,98315.34
2018-09-14T12:04:14.200Z,98301.86
2018-09-14T12:06:42.385Z,98305.07
2018-09-14T12:09:11.739Z,98298.83
2018-09-14T12:11:40.521Z,98293.26
2018-09-14T12:14:09.230Z,98289.75
2018-09-14T12:16:37.450Z,98293.11
2018-09-14T12:19:05.641Z,98293.39
2018-09-14T12:21:33.820Z,98292.78
2018-09-14T12:24:02.000Z,98294.25
2018-09-14T12:26:30.253Z,98300.83
2018-09-14T12:28:58.841Z,98298.25
2018-09-14T12:31:27.108Z,98298.30
2018-09-14T12:33:55.424Z,98287.36
2018-09-14T12:36:23.652Z,98293.44
2018-09-14T12:38:51.926Z,98295.22
2018-09-14T12:41:20.212Z,98291.72
2018-09-14T12:43:48.472Z,98291.54
2018-09-14T12:46:16.748Z,98289.67
2018-09-14T12:48:45.070Z,98282.16
2018-09-14T12:51:13.303Z,98281.61
2018-09-14T12:53:41.498Z,98281.86
2018-09-14T12:56:09.850Z,98280.14
2018-09-14T12:58:37.986Z,98285.39
2018-09-14T13:01:06.380Z,98281.18
2018-09-14T13:03:34.633Z,98282.36
2018-09-14T13:06:02.910Z,98280.25
2018-09-14T13:08:31.130Z,98273.31
2018-09-14T13:10:59.329Z,98268.05
2018-09-14T13:13:27.809Z,98268.76
2018-09-14T13:15:56.337Z,98274.20
2018-09-14T13:18:24.547Z,98275.48
2018-09-14T13:20:52.885Z,98264.24
2018-09-14T13:23:21.041Z,98263.89
2018-09-14T13:25:49.292Z,98258.98
2018-09-14T13:28:17.776Z,98265.43
2018-09-14T13:30:46.085Z,98255.39
2018-09-14T13:33:14.276Z,98258.86
2018-09-14T13:35:42.723Z,98257.83
2018-09-14T13:38:10.957Z,98261.90
2018-09-14T13:40:39.831Z,98263.84
2018-09-14T13:43:07.996Z,98261.68
2018-09-14T13:45:36.200Z,98257.53
2018-09-14T13:48:04.388Z,98252.28
2018-09-14T13:50:32.652Z,98258.84
2018-09-14T13:53:01.031Z,98264.03
2018-09-14T13:55:29.220Z,98260.22
2018-09-14T13:57:57.810Z,98259.12
2018-09-14T14:00:26.374Z,98259.33
2018-09-14T14:02:54.586Z,98260.69
2018-09-14T14:05:22.779Z,98253.44
2018-09-14T14:07:50.962Z,98253.94
2018-09-14T14:10:19.194Z,98251.13
2018-09-14T14:12:47.353Z,98250.75
2018-09-14T14:15:16.094Z,98253.42
2018-09-14T14:17:45.215Z,98238.36
2018-09-14T14:20:13.790Z,98232.83
2018-09-14T14:22:42.020Z,98237.09
2018-09-14T14:25:10.325Z,98245.20
2018-09-14T14:27:38.543Z,98225.59
2018-09-14T14:30:06.925Z,98228.49
2018-09-14T14:32:35.129Z,98221.23
2018-09-14T14:35:03.849Z,98217.64
2018-09-14T14:37:32.081Z,98212.17
2018-09-14T14:40:00.546Z,98219.30
2018-09-14T14:42:28.729Z,98219.26
2018-09-14T14:44:57.290Z,98214.86
2018-09-14T14:47:25.527Z,98211.14
2018-09-14T14:49:53.729Z,98220.10
2018-09-14T14:52:21.924Z,98215.86
2018-09-14T14:54:50.141Z,98215.53
2018-09-14T14:57:18.378Z,98219.38
2018-09-14T14:59:46.602Z,98224.23
2018-09-14T15:02:14.881Z,98221.47
2018-09-14T15:04:43.054Z,98216.22
2018-09-14T15:07:11.301Z,98216.87
2018-09-14T15:09:39.546Z,98218.40
2018-09-14T15:12:07.733Z,98218.33
2018-09-14T15:14:35.925Z,98212.77
2018-09-14T15:17:04.480Z,98214.64
2018-09-14T15:19:32.762Z,98213.90
2018-09-14T15:22:00.943Z,98208.44
2018-09-14T15:24:29.225Z,98213.12
2018-09-14T15:26:57.384Z,98214.41
2018-09-14T15:29:25.673Z,98219.47
2018-09-14T15:31:53.955Z,98220.95
2018-09-14T15:34:22.205Z,98214.38
2018-09-14T15:36:50.599Z,98217.05
2018-09-14T15:39:18.998Z,98214.70
2018-09-14T15:41:47.152Z,98215.06
2018-09-14T15:44:15.325Z,98213.59
2018-09-14T15:46:43.586Z,98210.30
2018-09-14T15:49:11.983Z,98213.41
2018-09-14T15:51:40.233Z,98206.92
2018-09-14T15:54:08.672Z,98210.63
2018-09-14T15:56:36.878Z,98204.15
2018-09-14T15:59:05.167Z,98201.19
2018-09-14T16:01:33.362Z,98203.45
2018-09-14T16:04:01.573Z,98209.14
2018-09-14T16:06:29.789Z,98207.61
2018-09-14T16:08:58.076Z,98197.70
2018-09-14T16:11:26.351Z,98202.34
2018-09-14T16:13:54.614Z,98203.25
2018-09-14T16:16:23.144Z,98206.28
2018-09-14T16:18:51.372Z,98203.47
2018-09-14T16:21:19.546Z,98210.14
2018-09-14T16:23:47.749Z,98205.93
2018-09-14T16:26:16.078Z,98210.66
2018-09-14T16:28:44.278Z,98214.02
2018-09-14T16:31:12.457Z,98211.84
2018-09-14T16:33:40.701Z,98217.09
2018-09-14T16:36:08.897Z,98222.43
2018-09-14T16:38:37.099Z,98221.19
2018-09-14T16:41:05.363Z,98216.62
2018-09-14T16:43:33.651Z,98222.20
2018-09-14T16:46:01.928Z,98226.75
2018-09-14T16:48:30.184Z,98227.38
2018-09-14T16:50:58.511Z,98225.45
2018-09-14T16:53:26.983Z,98229.38
2018-09-14T16:55:55.208Z,98229.17
2018-09-14T16:58:23.385Z,98231.75
2018-09-14T17:00:51.891Z,98232.17
2018-09-14T17:03:20.061Z,98229.98
2018-09-14T17:05:48.242Z,98231.18
2018-09-14T17:08:16.549Z,98232.19
2018-09-14T17:10:44.750Z,98227.44
2018-09-14T17:13:12.974Z,98229.81
2018-09-14T17:15:41.262Z,98228.44
2018-09-14T17:18:09.440Z,98232.60
2018-09-14T17:20:37.878Z,98232.19
2018-09-14T17:23:06.216Z,98233.57
2018-09-14T17:25:34.438Z,98232.99
2018-09-14T17:28:02.621Z,98234.77
2018-09-14T17:30:30.898Z,98234.56
2018-09-14T17:32:59.173Z,98244.42
2018-09-14T17:35:27.366Z,98244.62
2018-09-14T17:37:55.629Z,98240.67
2018-09-14T17:40:23.878Z,98244.16
2018-09-14T17:42:52.058Z,98242.39
2018-09-14T17:45:20.294Z,98240.48
2018-09-14T17:47:48.719Z,98249.49
2018-09-14T17:50:16.901Z,98252.43
2018-09-14T17:52:45.191Z,98251.39
2018-09-14T17:55:13.461Z,98248.41
2018-09-14T17:57:41.735Z,98255.11
2018-09-14T18:00:10.073Z,98254.59
2018-09-14T18:02:38.264Z,98249.41
2018-09-14T18:05:06.552Z,98257.70
2018-09-14T18:07:34.748Z,98259.91
2018-09-14T18:10:02.954Z,98253.36
2018-09-14T18:12:31.130Z,98258.08
2018-09-14T18:14:59.332Z,98262.20
2018-09-14T18:17:27.626Z,98260.03
2018-09-14T18:19:55.814Z,98262.22
2018-09-14T18:22:24.080Z,98273.06
2018-09-14T18:24:52.274Z,98268.15
2018-09-14T18:27:20.589Z,98266.74
2018-09-14T18:29:48.810Z,98272.05
2018-09-14T18:32:17.078Z,98275.17
2018-09-14T18:34:45.350Z,98274.71
2018-09-14T18:37:13.672Z,98285.72
2018-09-14T18:39:41.907Z,98287.48
2018-09-14T18:42:10.130Z,98283.75
2018-09-14T18:44:38.348Z,98285.11
2018-09-14T18:47:06.529Z,98291.61
2018-09-14T18:49:34.822Z,98286.39
2018-09-14T18:52:03.024Z,98290.34
2018-09-14T18:54:31.202Z,98294.59
2018-09-14T18:56:59.733Z,98293.87
2018-09-14T18:59:27.941Z,98297.23
2018-09-14T19:01:56.207Z,98293.29
2018-09-14T19:04:24.457Z,98293.29
2018-09-14T19:06:52.923Z,98290.94
2018-09-14T19:09:21.109Z,98301.37
2018-09-14T19:11:49.413Z,98295.59
2018-09-14T19:14:17.993Z,98302.08
2018-09-14T19:16:46.273Z,98302.28
2018-09-14T19:19:14.672Z,98306.89
2018-09-14T19:21:42.927Z,98311.65
2018-09-14T19:24:11.188Z,98310.92
2018-09-14T19:26:39.373Z,98308.55
2018-09-14T19:29:07.582Z,98314.56
2018-09-14T19:31:36.592Z,98309.67
2018-09-14T19:34:04.818Z,98317.45
2018-09-14T19:36:33.338Z,98307.23
2018-09-14T19:39:01.668Z,98309.59
2018-09-14T19:41:29.946Z,98302.65
2018-09-14T19:43:58.224Z,98298.15
2018-09-14T19:46:26.465Z,98296.36
2018-09-14T19:48:54.643Z,98302.59
2018-09-14T19:51:22.884Z,98306.22
2018-09-14T19:53:51.090Z,98307.81
2018-09-14T19:56:19.289Z,98310.38
2018-09-14T19:58:47.836Z,98307.80
2018-09-14T20:01:16.317Z,98310.96
2018-09-14T20:03:44.521Z,98310.63
2018-09-14T20:06:12.782Z,98310.96
2018-09-14T20:08:40.927Z,98307.98
2018-09-14T20:11:09.363Z,98305.00
2018-09-14T20:13:37.581Z,98306.11
2018-09-14T20:16:05.765Z,98304.91
2018-09-14T20:18:33.959Z,98304.25
2018-09-14T20:21:02.164Z,98300.78
2018-09-14T20:23:30.439Z,98309.64
2018-09-14T20:25:58.615Z,98310.69
2018-09-14T20:28:26.885Z,98302.22
2018-09-14T20:30:55.073Z,98302.59
2018-09-14T20:33:23.326Z,98298.05
2018-09-14T20:35:51.520Z,98312.22
2018-09-14T20:38:19.803Z,98319.84
2018-09-14T20:40:48.058Z,98320.91
2018-09-14T20:43:16.262Z,98325.18
2018-09-14T20:45:44.502Z,98326.00
2018-09-14T20:48:12.698Z,98325.97
2018-09-14T20:50:41.023Z,98322.13
2018-09-14T20:53:09.204Z,98319.61
2018-09-14T20:55:37.429Z,98320.91
2018-09-14T20:58:05.696Z,98317.44
2018-09-14T21:00:33.886Z,98316.77
2018-09-14T21:03:02.068Z,98323.72
2018-09-14T21:05:30.317Z,98328.16
2018-09-14T21:07:58.501Z,98331.22
2018-09-14T21:10:26.750Z,98332.06
2018-09-14T21:12:54.953Z,98334.08
2018-09-14T21:15:23.141Z,98323.47
2018-09-14T21:17:51.309Z,98320.28
2018-09-14T21:20:19.597Z,98332.20
2018-09-14T21:22:47.903Z,98330.61
2018-09-14T21:25:16.059Z,98331.36
2018-09-14T21:27:44.258Z,98326.94
2018-09-14T21:30:12.466Z,98331.72
2018-09-14T21:32:40.660Z,98334.78
2018-09-14T21:35:09.192Z,98334.77
2018-09-14T21:37:37.384Z,98329.37
2018-09-14T21:40:05.878Z,98324.34
2018-09-14T21:42:34.137Z,98325.64
2018-09-14T21:45:02.355Z,98326.77
2018-09-14T21:47:30.798Z,98333.48
2018-09-14T21:49:59.257Z,98335.84
2018-09-14T21:52:27.530Z,98327.62
2018-09-14T21:54:55.720Z,98335.55
2018-09-14T21:57:23.934Z,98333.80
2018-09-14T21:59:52.517Z,98330.17
2018-09-14T22:02:21.031Z,98334.17
2018-09-14T22:04:49.397Z,98332.22
2018-09-14T22:07:17.581Z,98327.34
2018-09-14T22:09:45.761Z,98327.30
2018-09-14T22:12:13.962Z,98327.67
2018-09-14T22:14:42.170Z,98330.01
2018-09-14T22:17:10.656Z,98327.05
2018-09-14T22:19:38.849Z,98318.80
2018-09-14T22:22:07.242Z,98316.05
2018-09-14T22:24:35.261Z,98324.67
2018-09-14T22:27:03.467Z,98326.04
2018-09-14T22:29:31.621Z,98326.60
2018-09-14T22:31:59.797Z,98320.75
2018-09-14T22:34:28.065Z,98319.76
2018-09-14T22:36:56.237Z,98323.13
2018-09-14T22:39:24.626Z,98332.67
2018-09-14T22:41:52.824Z,98328.84
2018-09-14T22:44:21.055Z,98339.77
2018-09-14T22:46:49.232Z,98344.68
2018-09-14T22:49:18.288Z,98345.05
2018-09-14T22:51:47.076Z,98345.97
2018-09-14T22:54:15.383Z,98347.83
2018-09-14T22:56:43.966Z,98343.70
2018-09-14T22:59:12.132Z,98341.66
2018-09-14T23:01:40.308Z,98344.52
2018-09-14T23:04:08.613Z,98344.44
2018-09-14T23:06:36.859Z,98339.09
2018-09-14T23:09:07.242Z,98347.86
2018-09-14T23:11:35.696Z,98349.64
2018-09-14T23:14:03.913Z,98347.00
2018-09-14T23:16:32.085Z,98356.35
2018-09-14T23:19:00.325Z,98345.83
2018-09-14T23:21:28.481Z,98350.91
2018-09-14T23:23:56.749Z,98347.91
2018-09-14T23:26:25.293Z,98339.18
2018-09-14T23:28:53.612Z,98340.86
2018-09-14T23:31:21.853Z,98339.59
2018-09-14T23:33:50.078Z,98338.39
2018-09-14T23:36:18.596Z,98344.84
2018-09-14T23:38:46.807Z,98338.55
2018-09-14T23:41:15.000Z,98343.20
2018-09-14T23:43:43.271Z,98338.28
2018-09-14T23:46:11.450Z,98334.58
2018-09-14T23:48:39.686Z,98327.77
2018-09-14T23:51:07.935Z,98333.53
2018-09-14T23:53:36.162Z,98327.34
2018-09-14T23:56:04.563Z,98327.31
2018-09-14T23:58:33.113Z,98330.32
